createdAt,value
2023-02-11T00:01:35.682Z,28.20
2023-02-11T00:04:04.334Z,28.42
2023-02-11T00:06:32.302Z,25.13
2023-02-11T00:08:59.582Z,27.85
2023-02-11T00:11:30.693Z,27.77
2023-02-11T00:14:03.566Z,30.70
2023-02-11T00:16:32.256Z,26.25
2023-02-11T00:19:00.473Z,24.17
2023-02-11T00:21:28.094Z,27.27
2023-02-11T00:23:57.200Z,27.90
2023-02-11T00:26:31.327Z,26.58
2023-02-11T00:28:59.065Z,24.33
2023-02-11T00:31:26.847Z,26.80
2023-02-11T00:33:54.308Z,25.45
2023-02-11T00:36:25.345Z,24.60
2023-02-11T00:38:53.680Z,28.20
2023-02-11T00:41:21.435Z,28.38
2023-02-11T00:43:48.726Z,25.45
2023-02-11T00:46:16.368Z,26.05
2023-02-11T00:48:43.659Z,27.55
2023-02-11T00:51:10.944Z,26.33
2023-02-11T00:53:38.330Z,27.52
2023-02-11T00:56:06.057Z,24.25
2023-02-11T00:58:33.698Z,24.63
2023-02-11T01:01:01.118Z,31.92
2023-02-11T01:03:28.329Z,29.27
2023-02-11T01:05:55.918Z,28.40
2023-02-11T01:08:22.985Z,24.85
2023-02-11T01:10:58.253Z,29.17
2023-02-11T01:13:26.012Z,23.38
2023-02-11T01:15:54.580Z,25.65
2023-02-11T01:18:21.897Z,28.08
2023-02-11T01:20:49.545Z,23.52
2023-02-11T01:23:17.090Z,26.52
2023-02-11T01:25:44.715Z,27.70
2023-02-11T01:28:24.464Z,25.73
2023-02-11T01:30:52.944Z,25.92
2023-02-11T01:33:20.788Z,27.70
2023-02-11T01:35:47.898Z,31.90
2023-02-11T01:38:18.010Z,21.73
2023-02-11T01:40:49.480Z,23.92
2023-02-11T01:43:16.766Z,24.90
2023-02-11T01:45:58.552Z,22.77
2023-02-11T01:48:40.381Z,25.40
2023-02-11T01:51:14.162Z,24.77
2023-02-11T01:54:00.658Z,21.20
2023-02-11T01:59:20.465Z,18.35
2023-02-11T02:01:53.109Z,19.85
2023-02-11T02:04:20.396Z,23.00
2023-02-11T02:07:09.415Z,21.85
2023-02-11T02:09:44.441Z,22.38
2023-02-11T02:12:11.676Z,20.87
2023-02-11T02:14:42.454Z,21.55
2023-02-11T02:17:29.004Z,23.73
2023-02-11T02:20:25.295Z,16.27
2023-02-11T02:22:55.103Z,24.38
2023-02-11T02:25:35.481Z,18.77
2023-02-11T02:28:17.988Z,20.60
2023-02-11T02:30:47.579Z,18.23
2023-02-11T02:33:23.461Z,21.95
2023-02-11T02:36:09.274Z,18.27
2023-02-11T02:38:50.695Z,20.55
2023-02-11T02:41:21.101Z,20.85
2023-02-11T02:43:51.796Z,22.05
2023-02-11T02:46:28.282Z,22.08
2023-02-11T02:48:56.554Z,20.08
2023-02-11T02:51:45.015Z,21.17
2023-02-11T02:54:38.035Z,20.85
2023-02-11T02:57:22.637Z,20.98
2023-02-11T03:00:08.854Z,19.83
2023-02-11T03:02:41.536Z,20.02
2023-02-11T03:05:14.392Z,24.13
2023-02-11T03:07:51.357Z,20.05
2023-02-11T03:10:32.460Z,23.70
2023-02-11T03:13:01.540Z,19.40
2023-02-11T03:15:32.466Z,21.35
2023-02-11T03:18:01.789Z,21.77
2023-02-11T03:20:32.974Z,19.45
2023-02-11T03:23:26.860Z,17.42
2023-02-11T03:26:01.585Z,18.33
2023-02-11T03:28:42.528Z,21.63
2023-02-11T03:31:21.837Z,21.98
2023-02-11T03:34:07.138Z,19.65
2023-02-11T03:36:48.239Z,21.30
2023-02-11T03:39:21.039Z,17.95
2023-02-11T03:41:49.979Z,20.02
2023-02-11T03:44:17.382Z,25.40
2023-02-11T03:46:50.472Z,24.92
2023-02-11T03:49:21.363Z,20.30
2023-02-11T03:51:51.716Z,25.42
2023-02-11T03:54:24.075Z,20.20
2023-02-11T03:56:57.519Z,18.95
2023-02-11T03:59:25.027Z,22.98
2023-02-11T04:01:52.567Z,18.30
2023-02-11T04:04:19.815Z,21.15
2023-02-11T04:06:46.614Z,23.23
2023-02-11T04:09:15.036Z,23.52
2023-02-11T04:11:42.349Z,22.58
2023-02-11T04:14:09.527Z,24.67
2023-02-11T04:16:36.366Z,24.90
2023-02-11T04:19:03.640Z,20.50
2023-02-11T04:21:30.810Z,25.27
2023-02-11T04:23:57.994Z,24.00
2023-02-11T04:26:24.815Z,20.08
2023-02-11T04:28:52.006Z,22.17
2023-02-11T04:31:19.294Z,20.63
2023-02-11T04:33:46.256Z,22.73
2023-02-11T04:36:13.604Z,21.52
2023-02-11T04:38:40.828Z,20.98
2023-02-11T04:41:08.018Z,18.50
2023-02-11T04:43:35.229Z,22.63
2023-02-11T04:46:02.458Z,19.25
2023-02-11T04:48:29.702Z,21.40
2023-02-11T04:50:56.935Z,24.15
2023-02-11T04:53:24.112Z,17.52
2023-02-11T04:55:51.652Z,22.50
2023-02-11T04:58:19.691Z,19.67
2023-02-11T05:00:47.120Z,25.38
2023-02-11T05:03:14.613Z,19.92
2023-02-11T05:05:42.725Z,26.80
2023-02-11T05:08:11.205Z,28.02
2023-02-11T05:10:38.643Z,19.98
2023-02-11T05:13:06.029Z,21.45
2023-02-11T05:15:33.407Z,19.98
2023-02-11T05:18:00.715Z,20.77
2023-02-11T05:20:28.084Z,20.42
2023-02-11T05:22:55.350Z,18.17
2023-02-11T05:25:22.550Z,20.38
2023-02-11T05:27:49.763Z,18.83
2023-02-11T05:30:17.005Z,16.50
2023-02-11T05:32:44.241Z,22.95
2023-02-11T05:35:11.601Z,19.77
2023-02-11T05:37:39.002Z,20.77
2023-02-11T05:40:06.519Z,22.52
2023-02-11T05:42:33.760Z,20.52
2023-02-11T05:45:00.641Z,24.88
2023-02-11T05:47:27.981Z,24.65
2023-02-11T05:49:54.871Z,19.48
2023-02-11T05:52:23.046Z,21.02
2023-02-11T05:54:50.183Z,20.42
2023-02-11T05:57:17.716Z,20.00
2023-02-11T05:59:44.942Z,18.33
2023-02-11T06:02:12.701Z,19.38
2023-02-11T06:04:39.976Z,21.80
2023-02-11T06:07:07.185Z,20.63
2023-02-11T06:09:34.415Z,21.90
2023-02-11T06:12:01.642Z,18.35
2023-02-11T06:14:28.515Z,17.58
2023-02-11T06:16:55.704Z,17.02
2023-02-11T06:19:22.458Z,18.67
2023-02-11T06:21:49.654Z,19.27
2023-02-11T06:24:28.534Z,16.50
2023-02-11T06:27:04.975Z,17.95
2023-02-11T06:29:31.800Z,20.17
2023-02-11T06:31:59.128Z,19.05
2023-02-11T06:34:26.393Z,20.15
2023-02-11T06:36:53.574Z,20.52
2023-02-11T06:39:20.808Z,15.50
2023-02-11T06:41:47.594Z,18.30
2023-02-11T06:44:14.385Z,21.38
2023-02-11T06:46:41.795Z,18.77
2023-02-11T06:49:09.181Z,14.93
2023-02-11T06:51:36.393Z,20.38
2023-02-11T06:54:05.419Z,17.13
2023-02-11T06:56:33.608Z,17.70
2023-02-11T06:59:00.996Z,19.60
2023-02-11T07:01:28.450Z,19.52
2023-02-11T07:03:55.345Z,19.02
2023-02-11T07:06:25.674Z,20.50
2023-02-11T07:08:52.872Z,21.50
2023-02-11T07:11:25.791Z,18.05
2023-02-11T07:13:55.280Z,15.75
2023-02-11T07:16:23.168Z,21.08
2023-02-11T07:18:50.440Z,20.67
2023-02-11T07:21:20.411Z,23.05
2023-02-11T07:23:48.664Z,19.48
2023-02-11T07:26:19.884Z,20.67
2023-02-11T07:28:47.573Z,16.13
2023-02-11T07:31:21.255Z,16.63
2023-02-11T07:33:50.147Z,16.50
2023-02-11T07:36:17.510Z,18.50
2023-02-11T07:38:45.207Z,17.52
2023-02-11T07:41:16.198Z,21.58
2023-02-11T07:43:44.397Z,19.50
2023-02-11T07:46:27.770Z,19.35
2023-02-11T07:48:55.665Z,21.60
2023-02-11T07:51:28.782Z,18.65
2023-02-11T07:53:57.747Z,21.88
2023-02-11T07:56:25.127Z,18.63
2023-02-11T07:58:52.907Z,20.85
2023-02-11T08:01:24.948Z,16.95
2023-02-11T08:03:52.685Z,16.92
2023-02-11T08:06:21.191Z,19.48
2023-02-11T08:08:48.629Z,23.30
2023-02-11T08:11:16.733Z,19.65
2023-02-11T08:13:44.366Z,20.15
2023-02-11T08:16:20.115Z,18.73
2023-02-11T08:18:47.384Z,19.77
2023-02-11T08:21:14.588Z,20.70
2023-02-11T08:23:43.354Z,19.17
2023-02-11T08:26:15.462Z,19.00
2023-02-11T08:28:44.711Z,20.95
2023-02-11T08:31:17.683Z,19.35
2023-02-11T08:33:45.327Z,19.13
2023-02-11T08:36:21.817Z,17.05
2023-02-11T08:38:49.024Z,21.38
2023-02-11T08:41:16.643Z,20.00
2023-02-11T08:43:44.845Z,25.45
2023-02-11T08:46:15.394Z,22.05
2023-02-11T08:48:42.984Z,21.55
2023-02-11T08:51:13.903Z,23.17
2023-02-11T08:53:40.880Z,21.50
2023-02-11T08:56:13.238Z,20.67
2023-02-11T08:58:40.933Z,21.20
2023-02-11T09:01:15.833Z,19.13
2023-02-11T09:03:43.146Z,23.60
2023-02-11T09:06:10.671Z,23.65
2023-02-11T09:08:39.404Z,20.77
2023-02-11T09:11:06.947Z,20.10
2023-02-11T09:13:34.211Z,21.92
2023-02-11T09:16:03.948Z,24.98
2023-02-11T09:18:31.393Z,23.48
2023-02-11T09:21:07.311Z,29.77
2023-02-11T09:23:34.601Z,25.35
2023-02-11T09:26:09.741Z,25.25
2023-02-11T09:28:36.722Z,23.58
2023-02-11T09:31:12.328Z,23.70
2023-02-11T09:33:42.189Z,21.80
2023-02-11T09:36:09.414Z,27.23
2023-02-11T09:38:36.689Z,25.60
2023-02-11T09:41:07.651Z,22.02
2023-02-11T09:43:45.198Z,19.95
2023-02-11T09:46:17.074Z,21.35
2023-02-11T09:48:47.843Z,22.30
2023-02-11T09:51:44.134Z,24.52
2023-02-11T09:54:28.286Z,21.67
2023-02-11T09:56:55.083Z,26.65
2023-02-11T09:59:22.416Z,18.42
2023-02-11T10:02:09.705Z,22.98
2023-02-11T10:05:23.034Z,23.95
2023-02-11T10:08:27.979Z,25.80
2023-02-11T10:11:31.210Z,21.00
2023-02-11T10:14:35.656Z,22.23
2023-02-11T10:17:02.913Z,21.15
2023-02-11T10:20:00.787Z,26.35
2023-02-11T10:22:49.437Z,20.83
2023-02-11T10:25:21.656Z,20.25
2023-02-11T10:27:49.733Z,22.25
2023-02-11T10:30:18.432Z,27.15
2023-02-11T10:32:59.727Z,22.63
2023-02-11T10:35:27.259Z,23.13
2023-02-11T10:37:57.753Z,24.60
2023-02-11T10:40:26.886Z,19.60
2023-02-11T10:42:57.304Z,23.80
2023-02-11T10:45:27.902Z,21.88
2023-02-11T10:47:55.435Z,21.40
2023-02-11T10:50:28.773Z,23.88
2023-02-11T10:53:24.459Z,23.65
2023-02-11T10:55:52.732Z,24.83
2023-02-11T10:58:30.773Z,21.95
2023-02-11T11:00:59.804Z,25.08
2023-02-11T11:03:32.161Z,20.45
2023-02-11T11:06:05.208Z,22.73
2023-02-11T11:08:49.572Z,21.73
2023-02-11T11:11:22.669Z,21.88
2023-02-11T11:13:52.512Z,21.88
2023-02-11T11:16:19.805Z,20.83
2023-02-11T11:18:54.556Z,24.38
2023-02-11T11:21:28.735Z,20.77
2023-02-11T11:24:00.340Z,21.15
2023-02-11T11:26:43.384Z,20.80
2023-02-11T11:29:17.283Z,26.48
2023-02-11T11:31:55.035Z,23.08
2023-02-11T11:34:22.549Z,26.98
2023-02-11T11:36:50.574Z,23.77
2023-02-11T11:39:24.526Z,20.63
2023-02-11T11:41:53.908Z,17.75
2023-02-11T11:44:25.530Z,18.95
2023-02-11T11:47:11.210Z,22.33
2023-02-11T11:49:47.097Z,21.05
2023-02-11T11:52:26.642Z,22.20
2023-02-11T11:55:06.624Z,19.20
2023-02-11T11:57:37.316Z,19.40
2023-02-11T12:00:05.484Z,20.67
2023-02-11T12:02:33.440Z,22.60
2023-02-11T12:05:30.789Z,27.83
2023-02-11T12:08:12.230Z,22.23
2023-02-11T12:10:44.776Z,19.40
2023-02-11T12:13:39.471Z,22.10
2023-02-11T12:16:07.214Z,20.20
2023-02-11T12:18:57.137Z,21.25
2023-02-11T12:21:24.357Z,18.75
2023-02-11T12:23:54.236Z,21.15
2023-02-11T12:26:47.920Z,23.08
2023-02-11T12:29:35.540Z,19.90
2023-02-11T12:32:10.555Z,22.55
2023-02-11T12:34:57.344Z,19.52
2023-02-11T12:43:09.688Z,17.13
2023-02-11T12:45:55.490Z,18.73
2023-02-11T12:48:41.193Z,18.25
2023-02-11T12:51:28.719Z,18.33
2023-02-11T12:54:16.857Z,18.52
2023-02-11T12:57:23.088Z,19.70
2023-02-11T13:00:06.958Z,23.77
2023-02-11T13:02:34.329Z,25.92
2023-02-11T13:05:27.184Z,21.23
2023-02-11T13:08:16.532Z,18.17
2023-02-11T13:10:50.454Z,18.25
2023-02-11T13:13:31.905Z,17.50
2023-02-11T13:16:21.564Z,17.92
2023-02-11T13:19:17.820Z,19.58
2023-02-11T13:22:29.653Z,20.33
2023-02-11T13:25:18.025Z,19.85
2023-02-11T13:28:20.082Z,19.40
2023-02-11T13:30:52.285Z,17.05
2023-02-11T13:33:31.340Z,24.60
2023-02-11T13:35:58.742Z,19.77
2023-02-11T13:38:28.886Z,18.88
2023-02-11T13:41:04.827Z,18.52
2023-02-11T13:43:34.405Z,21.13
2023-02-11T13:46:06.836Z,20.90
2023-02-11T13:48:40.482Z,19.25
2023-02-11T13:51:11.120Z,19.98
2023-02-11T13:53:58.120Z,22.10
2023-02-11T13:56:37.153Z,22.98
2023-02-11T13:59:33.009Z,20.52
2023-02-11T14:02:19.341Z,19.30
2023-02-11T14:05:27.876Z,18.90
2023-02-11T14:08:28.603Z,19.05
2023-02-11T14:10:55.900Z,22.95
2023-02-11T14:13:28.320Z,18.50
2023-02-11T14:16:06.036Z,20.88
2023-02-11T14:18:44.651Z,19.60
2023-02-11T14:21:27.305Z,24.27
2023-02-11T14:24:14.480Z,18.75
2023-02-11T14:26:56.741Z,22.73
2023-02-11T14:29:44.913Z,17.30
2023-02-11T14:32:12.146Z,19.80
2023-02-11T14:34:50.981Z,18.80
2023-02-11T14:37:36.668Z,20.02
2023-02-11T14:40:39.205Z,21.42
2023-02-11T14:43:16.759Z,19.65
2023-02-11T14:45:48.168Z,23.17
2023-02-11T14:48:17.514Z,16.38
2023-02-11T14:51:00.405Z,18.33
2023-02-11T14:53:30.521Z,20.35
2023-02-11T14:55:58.034Z,20.33
2023-02-11T14:58:27.849Z,19.17
2023-02-11T15:01:06.537Z,17.60
2023-02-11T15:03:36.558Z,17.80
2023-02-11T15:06:16.335Z,19.63
2023-02-11T15:08:55.135Z,18.60
2023-02-11T15:11:25.007Z,19.08
2023-02-11T15:13:55.251Z,20.80
2023-02-11T15:16:27.300Z,18.63
2023-02-11T15:19:02.633Z,16.60
2023-02-11T15:21:33.398Z,19.40
2023-02-11T15:24:06.475Z,16.55
2023-02-11T15:26:33.591Z,24.30
2023-02-11T15:29:00.866Z,17.70
2023-02-11T15:31:28.479Z,17.50
2023-02-11T15:33:55.685Z,24.00
2023-02-11T15:36:36.271Z,23.13
2023-02-11T15:39:34.745Z,26.17
2023-02-11T15:42:20.115Z,17.77
2023-02-11T15:44:54.353Z,18.33
2023-02-11T15:47:29.891Z,15.30
2023-02-11T15:49:57.108Z,18.25
2023-02-11T15:52:26.322Z,18.10
2023-02-11T15:54:55.928Z,17.65
2023-02-11T15:57:23.199Z,18.08
2023-02-11T15:59:53.119Z,16.80
2023-02-11T16:02:20.791Z,18.58
2023-02-11T16:04:59.192Z,19.60
2023-02-11T16:07:38.304Z,18.80
2023-02-11T16:10:05.947Z,18.88
2023-02-11T16:12:33.031Z,18.23
2023-02-11T16:15:03.878Z,20.63
2023-02-11T16:17:31.122Z,16.35
2023-02-11T16:19:58.338Z,20.40
2023-02-11T16:22:28.877Z,18.83
2023-02-11T16:24:59.193Z,18.35
2023-02-11T16:27:39.673Z,19.35
2023-02-11T16:30:20.805Z,19.95
2023-02-11T16:32:47.990Z,17.95
2023-02-11T16:35:15.236Z,17.92
2023-02-11T16:37:42.410Z,21.08
2023-02-11T16:40:11.872Z,24.48
2023-02-11T16:42:39.802Z,21.27
2023-02-11T16:45:07.181Z,17.65
2023-02-11T16:47:35.870Z,18.00
2023-02-11T16:50:04.451Z,17.23
2023-02-11T16:52:31.792Z,16.88
2023-02-11T16:54:59.620Z,19.70
2023-02-11T16:57:29.888Z,15.40
2023-02-11T16:59:59.023Z,19.50
2023-02-11T17:02:33.401Z,18.50
2023-02-11T17:05:03.418Z,17.52
2023-02-11T17:07:30.704Z,16.58
2023-02-11T17:09:58.064Z,16.17
2023-02-11T17:12:25.546Z,17.45
2023-02-11T17:14:53.123Z,16.55
2023-02-11T17:17:22.027Z,19.48
2023-02-11T17:19:49.388Z,17.63
2023-02-11T17:22:16.206Z,20.95
2023-02-11T17:24:43.414Z,17.10
2023-02-11T17:27:11.842Z,15.05
2023-02-11T17:29:39.140Z,20.25
2023-02-11T17:32:06.524Z,16.73
2023-02-11T17:34:33.779Z,17.25
2023-02-11T17:37:03.136Z,18.73
2023-02-11T17:39:30.365Z,15.57
2023-02-11T17:41:57.831Z,23.65
2023-02-11T17:44:25.397Z,18.45
2023-02-11T17:46:52.565Z,18.55
2023-02-11T17:49:20.356Z,18.33
2023-02-11T17:51:47.779Z,18.85
2023-02-11T17:54:17.368Z,14.88
2023-02-11T17:56:45.090Z,17.35
2023-02-11T17:59:13.314Z,18.48
2023-02-11T18:01:41.819Z,25.33
2023-02-11T18:04:14.462Z,16.77
2023-02-11T18:06:41.429Z,17.20
2023-02-11T18:09:08.215Z,14.25
2023-02-11T18:11:37.370Z,19.08
2023-02-11T18:14:07.713Z,14.25
2023-02-11T18:16:36.591Z,17.60
2023-02-11T18:19:04.387Z,18.65
2023-02-11T18:21:32.147Z,13.65
2023-02-11T18:24:05.873Z,17.25
2023-02-11T18:26:33.225Z,17.45
2023-02-11T18:29:00.689Z,17.75
2023-02-11T18:31:28.238Z,16.90
2023-02-11T18:33:55.103Z,14.02
2023-02-11T18:36:22.508Z,18.10
2023-02-11T18:38:49.962Z,16.10
2023-02-11T18:41:16.927Z,16.75
2023-02-11T18:43:44.209Z,17.10
2023-02-11T18:46:13.842Z,16.80
2023-02-11T18:48:41.603Z,17.98
2023-02-11T18:51:14.674Z,15.25
2023-02-11T18:53:42.413Z,18.15
2023-02-11T18:56:12.762Z,15.65
2023-02-11T18:58:40.037Z,20.52
2023-02-11T19:01:17.630Z,15.00
2023-02-11T19:03:45.263Z,13.82
2023-02-11T19:06:21.229Z,16.60
2023-02-11T19:08:48.557Z,14.82
2023-02-11T19:11:18.054Z,17.42
2023-02-11T19:13:47.920Z,13.73
2023-02-11T19:16:16.868Z,14.55
2023-02-11T19:18:44.648Z,15.60
2023-02-11T19:21:12.440Z,16.00
2023-02-11T19:23:39.883Z,17.10
2023-02-11T19:26:06.846Z,16.48
2023-02-11T19:28:35.433Z,15.27
2023-02-11T19:31:07.697Z,17.77
2023-02-11T19:33:35.402Z,20.30
2023-02-11T19:36:09.718Z,18.45
2023-02-11T19:38:36.890Z,17.38
2023-02-11T19:41:05.226Z,20.23
2023-02-11T19:43:32.012Z,18.80
2023-02-11T19:45:59.349Z,17.98
2023-02-11T19:48:26.650Z,15.00
2023-02-11T19:50:54.596Z,13.90
2023-02-11T19:53:22.032Z,14.43
2023-02-11T19:55:49.903Z,14.15
2023-02-11T19:58:17.701Z,16.58
2023-02-11T20:00:44.941Z,12.40
2023-02-11T20:03:12.270Z,15.48
2023-02-11T20:05:46.980Z,15.13
2023-02-11T20:08:16.974Z,13.40
2023-02-11T20:10:43.759Z,15.43
2023-02-11T20:13:10.941Z,16.38
2023-02-11T20:15:37.810Z,16.27
2023-02-11T20:18:05.119Z,17.38
2023-02-11T20:20:31.979Z,17.15
2023-02-11T20:22:59.243Z,14.48
2023-02-11T20:25:26.063Z,15.93
2023-02-11T20:27:52.913Z,16.30
2023-02-11T20:30:21.721Z,17.05
2023-02-11T20:32:48.929Z,14.88
2023-02-11T20:35:16.178Z,18.23
2023-02-11T20:37:44.242Z,16.13
2023-02-11T20:40:11.548Z,12.98
2023-02-11T20:42:38.846Z,16.20
2023-02-11T20:45:06.154Z,20.35
2023-02-11T20:47:33.480Z,18.73
2023-02-11T20:50:00.837Z,19.13
2023-02-11T20:52:28.706Z,16.83
2023-02-11T20:54:55.689Z,19.05
2023-02-11T20:57:22.949Z,18.63
2023-02-11T20:59:50.164Z,19.10
2023-02-11T21:02:17.442Z,18.30
2023-02-11T21:04:44.381Z,17.98
2023-02-11T21:07:11.582Z,19.25
2023-02-11T21:09:39.616Z,17.33
2023-02-11T21:12:07.809Z,18.00
2023-02-11T21:14:35.120Z,14.10
2023-02-11T21:17:02.401Z,18.77
2023-02-11T21:19:29.725Z,14.77
2023-02-11T21:22:00.496Z,17.13
2023-02-11T21:24:28.093Z,14.55
2023-02-11T21:26:54.984Z,15.82
2023-02-11T21:29:22.315Z,16.88
2023-02-11T21:31:49.889Z,15.45
2023-02-11T21:34:17.292Z,16.45
2023-02-11T21:36:45.328Z,15.98
2023-02-11T21:39:13.750Z,22.25
2023-02-11T21:41:40.604Z,17.27
2023-02-11T21:44:07.579Z,18.10
2023-02-11T21:46:34.898Z,13.48
2023-02-11T21:49:02.305Z,16.90
2023-02-11T21:51:29.345Z,17.27
2023-02-11T21:53:58.951Z,17.30
2023-02-11T21:56:29.671Z,15.65
2023-02-11T21:58:58.772Z,16.73
2023-02-11T22:01:28.932Z,12.85
2023-02-11T22:03:56.633Z,13.80
2023-02-11T22:06:31.339Z,14.05
2023-02-11T22:09:00.350Z,14.02
2023-02-11T22:11:27.123Z,14.65
2023-02-11T22:13:56.280Z,15.13
2023-02-11T22:16:24.345Z,13.60
2023-02-11T22:18:51.662Z,13.48
2023-02-11T22:21:22.044Z,16.52
2023-02-11T22:23:49.395Z,12.90
2023-02-11T22:26:21.796Z,15.10
2023-02-11T22:28:50.319Z,13.10
2023-02-11T22:31:20.471Z,15.73
2023-02-11T22:33:47.879Z,13.45
2023-02-11T22:36:24.436Z,15.02
2023-02-11T22:38:51.906Z,13.32
2023-02-11T22:41:19.755Z,13.32
2023-02-11T22:43:46.965Z,11.95
2023-02-11T22:46:16.761Z,11.45
2023-02-11T22:48:44.080Z,12.93
2023-02-11T22:51:16.721Z,11.65
2023-02-11T22:53:44.480Z,13.70
2023-02-11T22:56:15.349Z,11.95
2023-02-11T22:58:43.150Z,12.68
2023-02-11T23:01:10.519Z,10.38
2023-02-11T23:03:37.347Z,10.57
2023-02-11T23:06:04.685Z,9.30
2023-02-11T23:08:32.327Z,10.02
2023-02-11T23:11:10.838Z,11.35
2023-02-11T23:13:39.819Z,12.70
2023-02-11T23:16:09.029Z,9.35
2023-02-11T23:18:37.104Z,12.65
2023-02-11T23:21:06.715Z,11.15
2023-02-11T23:23:34.236Z,10.02
2023-02-11T23:26:01.629Z,10.27
2023-02-11T23:28:29.110Z,11.45
2023-02-11T23:30:56.401Z,11.48
2023-02-11T23:33:23.943Z,9.73
2023-02-11T23:35:50.892Z,9.65
2023-02-11T23:38:18.170Z,10.85
2023-02-11T23:40:45.370Z,9.93
2023-02-11T23:43:12.559Z,9.43
2023-02-11T23:45:39.341Z,11.50
2023-02-11T23:48:06.176Z,11.40
2023-02-11T23:50:33.838Z,9.63
2023-02-11T23:53:01.354Z,11.13
2023-02-11T23:55:28.583Z,9.68
2023-02-11T23:57:55.786Z,9.27
